Kisber — 9V2736 — position and weather

sailwx.info

Track history (hours):
 
Tides and Currents Weather Stations Pressure Air Temp Water Temp Dewpoint Dewpoint Depression Visibility Wind Speed Wind Dir Waves Ship Positions

Kisber

Last reported at 2018-Jul-20 09:16 UTC. Time now 2018-Jul-20 18:18 UTC.
Position N 39°25' W 009°59'.

Length 120 m; draft 5.5 m.

Type: Tanker. MMSI: 566473000.

Date/timePositionNaut miles runAvg speedWind from/ knotsBaromVisibWave heightAir tempDewpointWater temp
2018-Jul-20 09:16N 39°25' W 009°59'413.9
2018-Jul-20 08:57N 39°21' W 009°59'614.0
2018-Jul-20 08:30N 39°15' W 009°59'714.0
2018-Jul-20 08:00N 39°08' W 009°57'714.2
2018-Jul-20 07:30N 39°01' W 009°57'714.2
2018-Jul-20 07:00N 38°54' W 009°57'714.5
2018-Jul-20 06:31N 38°47' W 009°57'714.8
2018-Jul-20 06:00N 38°39' W 009°56'714.3
2018-Jul-20 05:30N 38°32' W 009°55'714.5
2018-Jul-20 05:00N 38°25' W 009°56'714.5
2018-Jul-20 04:30N 38°17' W 009°56'714.5
2018-Jul-20 04:00N 38°10' W 009°56'714.5
2018-Jul-20 03:30N 38°03' W 009°56'714.7
2018-Jul-20 03:00N 37°56' W 009°56'714.5
2018-Jul-20 02:30N 37°48' W 009°56'714.3
2018-Jul-20 02:00N 37°41' W 009°57'714.3
2018-Jul-20 01:29N 37°34' W 009°56'714.1
2018-Jul-20 01:00N 37°27' W 009°56'714.2
2018-Jul-20 00:29N 37°20' W 009°56'714.4
2018-Jul-19 23:59N 37°12' W 009°56'714.6
2018-Jul-19 23:30N 37°06' W 009°56'714.7
2018-Jul-19 23:00N 36°58' W 009°56'714.3
2018-Jul-19 22:30N 36°51' W 009°55'815.1
2018-Jul-19 21:59N 36°44' W 009°49'714.6
2018-Jul-19 21:31N 36°39' W 009°45'714.2
2018-Jul-19 21:01N 36°33' W 009°40'714.5
2018-Jul-19 20:30N 36°27' W 009°35'714.3
2018-Jul-19 20:00N 36°21' W 009°30'714.2
2018-Jul-19 19:29N 36°14' W 009°25'814.2
2018-Jul-19 18:57N 36°08' W 009°20'614.0
2018-Jul-19 18:30N 36°03' W 009°16'714.1
2018-Jul-19 17:59N 35°57' W 009°11'1613.9
2018-Jul-19 16:51N 35°43' W 009°01'514.0
2018-Jul-19 16:29N 35°39' W 008°57'  
2018-Jul-14 17:40N 38°49' W 010°11'214.2
2018-Jul-14 17:30N 38°51' W 010°11'714.8
2018-Jul-14 17:00N 38°59' W 010°11'714.9
2018-Jul-14 16:30N 39°06' W 010°12'13414.5
2018-Jul-14 07:16N 41°20' W 010°12'  
Track history (hours):
 
Tides and Currents Weather Stations Pressure Air Temp Water Temp Dewpoint Dewpoint Depression Visibility Wind Speed Wind Dir Waves Ship Positions

Kisber

Last reported at 2018-Jul-20 09:16 UTC. Time now 2018-Jul-20 18:18 UTC.
Position N 39°25' W 009°59'.

Length 120 m; draft 5.5 m.

Type: Tanker. MMSI: 566473000.

Date/timePositionNaut miles runAvg speedWind from/ knotsBaromVisibWave heightAir tempDewpointWater temp
2018-Jul-20 09:16N 39°25' W 009°59'413.9
2018-Jul-20 08:57N 39°21' W 009°59'614.0
2018-Jul-20 08:30N 39°15' W 009°59'714.0
2018-Jul-20 08:00N 39°08' W 009°57'714.2
2018-Jul-20 07:30N 39°01' W 009°57'714.2
2018-Jul-20 07:00N 38°54' W 009°57'714.5
2018-Jul-20 06:31N 38°47' W 009°57'714.8
2018-Jul-20 06:00N 38°39' W 009°56'714.3
2018-Jul-20 05:30N 38°32' W 009°55'714.5
2018-Jul-20 05:00N 38°25' W 009°56'714.5
2018-Jul-20 04:30N 38°17' W 009°56'714.5
2018-Jul-20 04:00N 38°10' W 009°56'714.5
2018-Jul-20 03:30N 38°03' W 009°56'714.7
2018-Jul-20 03:00N 37°56' W 009°56'714.5
2018-Jul-20 02:30N 37°48' W 009°56'714.3
2018-Jul-20 02:00N 37°41' W 009°57'714.3
2018-Jul-20 01:29N 37°34' W 009°56'714.1
2018-Jul-20 01:00N 37°27' W 009°56'714.2
2018-Jul-20 00:29N 37°20' W 009°56'714.4
2018-Jul-19 23:59N 37°12' W 009°56'714.6
2018-Jul-19 23:30N 37°06' W 009°56'714.7
2018-Jul-19 23:00N 36°58' W 009°56'714.3
2018-Jul-19 22:30N 36°51' W 009°55'815.1
2018-Jul-19 21:59N 36°44' W 009°49'714.6
2018-Jul-19 21:31N 36°39' W 009°45'714.2
2018-Jul-19 21:01N 36°33' W 009°40'714.5
2018-Jul-19 20:30N 36°27' W 009°35'714.3
2018-Jul-19 20:00N 36°21' W 009°30'714.2
2018-Jul-19 19:29N 36°14' W 009°25'814.2
2018-Jul-19 18:57N 36°08' W 009°20'614.0
2018-Jul-19 18:30N 36°03' W 009°16'714.1
2018-Jul-19 17:59N 35°57' W 009°11'1613.9
2018-Jul-19 16:51N 35°43' W 009°01'514.0
2018-Jul-19 16:29N 35°39' W 008°57'  
2018-Jul-14 17:40N 38°49' W 010°11'214.2
2018-Jul-14 17:30N 38°51' W 010°11'714.8
2018-Jul-14 17:00N 38°59' W 010°11'714.9
2018-Jul-14 16:30N 39°06' W 010°12'13414.5
2018-Jul-14 07:16N 41°20' W 010°12'  

Dump ship's entire track history